This is the latest recevied weather packets stored in our database for station/object KA3RQR. If no packets are shown the sender has not sent any weather packets the latest 1 day(s).
| Time | Temp. | Humidity | Pressure | Rain* | Wind** | Luminosity | Snow |
|---|---|---|---|---|---|---|---|
| 1777998338 | 25.56° C | 41% | 1012 hPa | 0 mm | 1.79 m/s, 324° | 49 W/m² | - |
| 1777998036 | 25° C | 39% | 1012.4 hPa | 0 mm | 3.13 m/s, 114° | 47 W/m² | - |
| 1777997732 | 25.56° C | 42% | 1012.4 hPa | 0 mm | 1.79 m/s, 208° | 47 W/m² | - |
| 1777997429 | 25° C | 43% | 1012.5 hPa | 0 mm | 1.34 m/s, 141° | 51 W/m² | - |
| 1777997127 | 25° C | 45% | 1012.6 hPa | 0 mm | 1.79 m/s, 278° | 47 W/m² | - |
| 1777996824 | 25° C | 42% | 1012.6 hPa | 0 mm | 2.24 m/s, 137° | 88 W/m² | - |
| 1777996520 | 25° C | 45% | 1012.7 hPa | 0 mm | 1.34 m/s, 181° | 46 W/m² | - |
| 1777996217 | 25° C | 44% | 1012.7 hPa | 0 mm | 1.34 m/s, 133° | 91 W/m² | - |
| 1777995913 | 24.44° C | 45% | 1012.6 hPa | 0 mm | 0.45 m/s, 156° | 45 W/m² | - |
| 1777995609 | 24.44° C | 45% | 1012.5 hPa | 0 mm | 1.34 m/s, 194° | 58 W/m² | - |
| 1777995307 | 24.44° C | 44% | 1012.4 hPa | 0 mm | 1.34 m/s, 160° | 56 W/m² | - |
| 1777995004 | 23.89° C | 47% | 1012.6 hPa | 0 mm | 1.34 m/s, 248° | 113 W/m² | - |
| 1777994701 | 24.44° C | 48% | 1012.7 hPa | 0 mm | 1.34 m/s, 210° | 69 W/m² | - |
| 1777994396 | 23.89° C | 48% | 1012.5 hPa | 0 mm | 1.34 m/s, 173° | 95 W/m² | - |
| 1777994091 | 23.89° C | 48% | 1012.4 hPa | 0 mm | 0.89 m/s, 170° | 54 W/m² | - |
| 1777993789 | 23.33° C | 49% | 1012.6 hPa | 0 mm | 0.45 m/s, 165° | 75 W/m² | - |
| 1777993486 | 23.33° C | 49% | 1012.7 hPa | 0 mm | 0.89 m/s, 320° | 43 W/m² | - |
| 1777993185 | 23.33° C | 50% | 1012.5 hPa | 0 mm | 1.34 m/s, 134° | 44 W/m² | - |
| 1777992883 | 23.33° C | 50% | 1012.6 hPa | 0 mm | 0.45 m/s, 212° | 44 W/m² | - |
| 1777992582 | 22.78° C | 49% | 1012.5 hPa | 0 mm | 1.34 m/s, 156° | 44 W/m² | - |
| 1777992279 | 22.78° C | 51% | 1012.6 hPa | 0 mm | 0 m/s | 44 W/m² | - |
| 1777991976 | 22.22° C | 52% | 1012.6 hPa | 0 mm | 0.89 m/s, 160° | 44 W/m² | - |
| 1777991674 | 22.22° C | 51% | 1012.6 hPa | 0 mm | 0.45 m/s, 206° | 49 W/m² | - |
| 1777991371 | 22.22° C | 49% | 1012.6 hPa | 0 mm | 2.68 m/s, 133° | 43 W/m² | - |
| 1777991068 | 21.67° C | 52% | 1012.6 hPa | 0 mm | 1.34 m/s, 136° | 63 W/m² | - |
* Rain latest hour (hover to see other rain measurements)
** Current wind speed in m/s (hover to see current wind gust speed)